Terminal Aerodrome Forecast
Issued by NWS

Home | Current Version | Previous Version | Text Only | Print | Product List | Glossary On
Versions: 1 2 3 4 5 6 7 8 9 10 11 12 13 14 15 16 17 18 19 20 21 22 23 24 25 26 27 28 29 30 31 32 33 34
000
FTUS43 KLOT 171300 AAA
TAFORD
TAF AMD
KORD 171351Z 1714/1818 21004KT P6SM FEW040 SCT250
     FM171800 30006KT P6SM FEW040 SCT080
     FM172200 07006KT P6SM FEW040 SCT080
     FM180200 VRB02KT P6SM SKC
     FM181300 04007KT P6SM FEW012 SCT025 BKN200=

USA.gov is the U.S. government's official web portal to all federal, state and local government web resources and services.